METAR LOCAUX

2021/12/04 05:30 LFST 040530Z AUTO 18014KT 9999 BKN029 BKN038 OVC052 06/04 Q0999 TEMPO 4000 -RA
2021/12/04 05:20 EDSB 040520Z 20013KT 7000 RA FEW008 BKN024 OVC029 07/06 Q0999
2021/12/04 05:30 LFGA 040530Z AUTO 17011KT 9999 BKN049/// BKN056/// BKN068/// ///TCU 06/05 Q1000
www.noaa.gov

Ne pas utiliser pour préparer ou effectuer un vol: Utilisez la documentation officielle disponible sur aviation.meteo.fr (Aéroweb)


"Le soleil du matin ne dure pas forcément toute la journée."

Animation satellite IR

Meteociel.fr

"Derrière chaque nuage se cache le ciel bleu."

Radar pluie

Infoclimat.fr

"Si tu veux l’arc-en-ciel, tu dois supporter la pluie."
Dolly Parton

Nébulosité (octas)

Meteociel.fr

"Le soleil est souvent obscurci par les nuages et la raison par les passions."
Démophile

Impacts de foudre

www.meteo60.fr

"Celui que frappe la foudre n'entend pas le tonnerre."

Vigilance météo

vigilance-meteo.fr

"Tout nuage n'enfante pas une tempête."
William Shakespeare

TAF locaux

2021/12/04 06:21 TAF LFST 040500Z 0406/0506 20012KT 9999 OVC030 TEMPO 0406/0416 4000 -RA TEMPO 0416/0419 27020G35KT 4000 SHRA FEW050TCU PROB40 TEMPO 0421/0506 -SHRA FEW030TCU
2021/12/04 06:33 TAF EDSB 040500Z 0406/0506 21013KT 9999 FEW012 OVC025 TEMPO 0406/0413 21015G25KT 4000 RA PROB30 TEMPO 0413/0418 21015G25KT 4000 SHRA BKN020CB BECMG 0420/0422 21008KT
www.noaa.gov

Ne pas utiliser pour préparer ou effectuer un vol: Utilisez la documentation officielle disponible sur aviation.meteo.fr (Aéroweb)


"Les jours où le ciel est gris, le soleil n'a pas disparu à tout jamais."
Arnaud Desjardins

Prévisions 7 jours


Meteoblue.com

"Quand les crapauds chantent, le beau temps s'avance !"